Hopper, Illinois
Current Conditions -  °F | °C
As of 9:53 PM on Tuesday 25 Nov 2014 (Local Time) from KBRL Reporting Station
Clear Clear  
Wind Chill: 16°   Ceiling: Unl
Heat Index: 23°   Visibility: 10mi
Dew Point: 19°   Wind: 6mph
Humidity: 85%   Direction: 120°ESE
Pressure: 30.15"   Gusts: NA
Location:  40.7638°N, 90.9614°W
Report Text: KBRL 260353Z AUTO 12005KT 10SM CLR M05/M07 A3015 RMK AO2 SLP218 T10501072
Loading
Personal Weather Stations






























Interactive Weather Map New forecast layout! Learn more

10-Day Weather Forecast

Advertisements
Track Severe Weather on mobile